KBVS Airport Information

Runway Information
Runway 04 Length 3000 ft width 60 ft
Elevation 84 ft Threshold 0 ft Heading 56
Runway 22 Length 3000 ft Width 60 ft
Elevation 97 ft Threshold 0 ft Heading 236
Runway 10 Length 5477 ft width 100 ft
Elevation 144 ft Threshold 0 ft Heading 126
Runway 28 Length 5477 ft Width 100 ft
Elevation 98 ft Threshold 0 ft Heading 306
Airport Frequencies
Type A/D Name WHIDBEY AP Frequency 120.7 MHZ
Type AWOS Name AWOS 3 Frequency 121.125 MHZ
Type UNIC Name CTAF/UNICO Frequency 123.075 MHZ
Airport Navaids
Airport Weather Information & NOTAM
ADDS - METARS form results

(0934 UTC 23 July 2018)
 
METAR text: KBVS 230915Z AUTO 00000KT 10SM CLR 15/13 A3011 RMK A01
Conditions at: KBVS (BURLINGTON/MT V , WA, US) observed 0915 UTC 23 July 2018
Temperature: 15.0°C (59°F)
Dewpoint: 13.0°C (55°F) [RH = 88%]
Pressure (altimeter): 30.11 inches Hg (1019.7 mb)
Winds: calm
Visibility: 10 or more miles (16+ km)
Ceiling: at least 12,000 feet AGL
Clouds: sky clear below 12,000 feet AGL
Weather: automated observation with no human augmentation;
there may or may not be significant weather present at this time

METAR text: KBVS 230855Z AUTO 00000KT 10SM CLR 15/12 A3011 RMK A01
Conditions at: KBVS (BURLINGTON/MT V , WA, US) observed 0855 UTC 23 July 2018
Temperature: 15.0°C (59°F)
Dewpoint: 12.0°C (54°F) [RH = 82%]
Pressure (altimeter): 30.11 inches Hg (1019.7 mb)
Winds: calm
Visibility: 10 or more miles (16+ km)
Ceiling: at least 12,000 feet AGL
Clouds: sky clear below 12,000 feet AGL
Weather: automated observation with no human augmentation;
there may or may not be significant weather present at this time

METAR text: KBVS 230835Z AUTO 00000KT 10SM CLR 15/12 A3011 RMK A01
Conditions at: KBVS (BURLINGTON/MT V , WA, US) observed 0835 UTC 23 July 2018
Temperature: 15.0°C (59°F)
Dewpoint: 12.0°C (54°F) [RH = 82%]
Pressure (altimeter): 30.11 inches Hg (1019.7 mb)
Winds: calm
Visibility: 10 or more miles (16+ km)
Ceiling: at least 12,000 feet AGL
Clouds: sky clear below 12,000 feet AGL
Weather: automated observation with no human augmentation;
there may or may not be significant weather present at this time